Time;durP1;ratioP1;P1;durP2;ratioP2;P2;SDS_P1;SDS_P2;PMS_P1;PMS_P2;Temp;Humidity;BMP_temperature;BMP_pressure;BME280_temperature;BME280_humidity;BME280_pressure;Samples;Min_cycle;Max_cycle;Signal;HPM_P1;HPM_P2
2023/05/18 00:00:35;;;;;;;;;;;;;;;11.75;47.42;101599.44;4977427;28;8580;-80
2023/05/18 00:03:01;;;;;;;;;;;;;;;11.73;47.11;101599.34;4974125;28;7082;-76
2023/05/18 00:05:32;;;;;;;;;;;;;;;11.72;47.21;101596.66;4957854;28;7345;-76
2023/05/18 00:08:00;;;;;;;;;;;;;;;11.69;46.95;101596.47;4985740;28;7015;-77
2023/05/18 00:10:25;;;;;;;;;;;;;;;11.66;47.52;101592.94;4968040;28;6991;-80
2023/05/18 00:12:51;;;;;;;;;;;;;;;11.63;47.60;101597.84;4957080;28;8180;-76
2023/05/18 00:15:17;;;;;;;;;;;;;;;11.61;47.17;101593.44;4948112;28;7048;-80
2023/05/18 00:17:44;;;;;;;;;;;;;;;11.57;47.83;101592.34;4947695;28;7032;-77
2023/05/18 00:20:10;;;;;;;;;;;;;;;11.57;47.27;101594.03;4957865;28;7299;-77
2023/05/18 00:22:41;;;;;;;;;;;;;;;11.55;47.60;101600.75;4967183;28;6863;-80
2023/05/18 00:25:07;;;;;;;;;;;;;;;11.52;47.93;101599.78;4971231;28;7082;-78
2023/05/18 00:27:33;;;;;;;;;;;;;;;11.49;47.60;101602.16;4964468;28;6800;-78
2023/05/18 00:29:59;;;;;;;;;;;;;;;11.45;47.48;101597.59;4975639;28;6792;-81
2023/05/18 00:32:24;;;;;;;;;;;;;;;11.42;47.93;101599.97;4963781;28;7095;-76
2023/05/18 00:34:50;;;;;;;;;;;;;;;11.39;47.83;101607.47;4953828;28;6847;-80
2023/05/18 00:37:15;;;;;;;;;;;;;;;11.35;48.33;101613.19;4960893;28;7012;-78
2023/05/18 00:39:41;;;;;;;;;;;;;;;11.33;47.81;101607.09;4967562;28;6772;-79
2023/05/18 00:42:07;;;;;;;;;;;;;;;11.31;48.31;101604.41;4968754;28;7226;-78
2023/05/18 00:44:32;;;;;;;;;;;;;;;11.29;48.48;101603.44;4965031;28;6768;-80
2023/05/18 00:46:59;;;;;;;;;;;;;;;11.28;48.57;101603.31;4964706;28;6977;-80
2023/05/18 00:49:25;;;;;;;;;;;;;;;11.26;48.51;101595.56;4982291;28;6840;-75
2023/05/18 00:51:53;;;;;;;;;;;;;;;11.24;48.35;101603.13;4964858;28;6954;-80
2023/05/18 00:54:19;;;;;;;;;;;;;;;11.22;48.59;101607.28;4965214;28;6816;-80
2023/05/18 00:56:47;;;;;;;;;;;;;;;11.19;48.16;101594.25;4966057;28;7169;-77
2023/05/18 00:59:14;;;;;;;;;;;;;;;11.18;48.60;101597.59;4959959;28;6871;-77
2023/05/18 01:01:45;;;;;;;;;;;;;;;11.15;48.52;101593.94;4968405;28;6840;-79
2023/05/18 01:04:13;;;;;;;;;;;;;;;11.11;48.43;101591.19;4959258;28;7159;-79
2023/05/18 01:06:40;;;;;;;;;;;;;;;11.09;48.43;101602.13;4963566;28;6930;-80
2023/05/18 01:09:10;;;;;;;;;;;;;;;11.05;48.41;101597.59;4963567;28;6935;-79
2023/05/18 01:11:54;;;;;;;;;;;;;;;11.02;48.48;101588.03;4958417;28;7044;-75
2023/05/18 01:14:44;;;;;;;;;;;;;;;11.00;48.22;101591.28;4940788;28;7008;-78
2023/05/18 01:17:20;;;;;;;;;;;;;;;10.95;49.13;101591.88;4964841;28;6845;-80
2023/05/18 01:20:44;;;;;;;;;;;;;;;10.92;48.83;101594.25;4964609;28;6859;-79
2023/05/18 01:24:14;;;;;;;;;;;;;;;10.86;49.37;101601.53;4982886;28;6862;-80
2023/05/18 01:26:44;;;;;;;;;;;;;;;10.82;49.25;101602.13;4896245;28;7029;-79
2023/05/18 01:29:12;;;;;;;;;;;;;;;10.82;49.44;101597.00;4929833;28;7653;-80
2023/05/18 01:31:39;;;;;;;;;;;;;;;10.81;49.17;101600.31;4932872;28;6792;-80
2023/05/18 01:34:05;;;;;;;;;;;;;;;10.79;49.54;101605.38;4962297;28;6906;-80
2023/05/18 01:36:31;;;;;;;;;;;;;;;10.79;49.38;101605.38;4967576;28;7012;-83
2023/05/18 01:39:00;;;;;;;;;;;;;;;10.78;49.96;101603.59;4966011;28;6784;-82
2023/05/18 01:41:29;;;;;;;;;;;;;;;10.76;49.40;101594.88;4975162;28;7001;-79
2023/05/18 01:44:14;;;;;;;;;;;;;;;10.76;49.76;101599.13;4963365;28;6996;-82
2023/05/18 01:47:05;;;;;;;;;;;;;;;10.73;49.32;101601.50;4962110;28;6874;-80
2023/05/18 01:49:32;;;;;;;;;;;;;;;10.69;49.69;101595.28;4967280;28;6804;-80
2023/05/18 01:52:06;;;;;;;;;;;;;;;10.67;49.26;101596.84;4959162;28;7071;-80
2023/05/18 01:54:35;;;;;;;;;;;;;;;10.64;49.60;101605.22;4965676;28;6872;-80
2023/05/18 01:57:05;;;;;;;;;;;;;;;10.61;49.36;101596.44;4979277;28;6971;-80
2023/05/18 01:59:32;;;;;;;;;;;;;;;10.58;49.69;101604.81;4964016;28;6957;-80
2023/05/18 02:02:00;;;;;;;;;;;;;;;10.54;49.95;101601.16;4959817;28;6812;-80
2023/05/18 02:04:27;;;;;;;;;;;;;;;10.51;49.81;101603.50;4963128;28;6852;-80
2023/05/18 02:06:55;;;;;;;;;;;;;;;10.48;49.76;101603.31;4960795;28;6780;-79
2023/05/18 02:09:21;;;;;;;;;;;;;;;10.47;49.92;101605.75;4945078;28;7011;-81
2023/05/18 02:11:48;;;;;;;;;;;;;;;10.45;50.08;101610.78;4976475;28;7360;-82
2023/05/18 02:14:14;;;;;;;;;;;;;;;10.42;50.47;101611.44;4971775;28;6853;-82
2023/05/18 02:16:39;;;;;;;;;;;;;;;10.40;49.70;101607.88;4961571;28;6796;-78
2023/05/18 02:19:05;;;;;;;;;;;;;;;10.36;50.17;101617.81;4981393;28;7137;-78
2023/05/18 02:21:34;;;;;;;;;;;;;;;10.32;50.00;101613.25;4961977;28;8065;-78
2023/05/18 02:23:59;;;;;;;;;;;;;;;10.25;49.99;101610.28;4968304;28;7330;-78
2023/05/18 02:26:26;;;;;;;;;;;;;;;10.21;50.29;101613.44;4946211;28;6941;-76
2023/05/18 02:28:52;;;;;;;;;;;;;;;10.18;50.47;101608.06;4961410;28;6788;-76
2023/05/18 02:31:17;;;;;;;;;;;;;;;10.13;50.53;101610.31;4951168;28;7295;-76
2023/05/18 02:33:43;;;;;;;;;;;;;;;10.10;51.02;101607.53;4939104;28;6768;-76
2023/05/18 02:36:11;;;;;;;;;;;;;;;10.08;50.97;101611.69;4931939;28;7004;-78
2023/05/18 02:38:42;;;;;;;;;;;;;;;10.06;51.16;101614.91;4948752;28;6998;-79
2023/05/18 02:41:09;;;;;;;;;;;;;;;10.03;51.21;101613.03;4946781;28;6807;-77
2023/05/18 02:43:35;;;;;;;;;;;;;;;10.01;50.42;101612.03;4952080;28;7244;-76
2023/05/18 02:46:03;;;;;;;;;;;;;;;9.99;50.91;101613.59;4944343;28;6808;-77
2023/05/18 02:48:29;;;;;;;;;;;;;;;9.98;50.78;101614.38;4948949;28;6983;-76
2023/05/18 02:50:54;;;;;;;;;;;;;;;9.97;51.02;101615.19;4941632;28;6767;-76
2023/05/18 02:53:20;;;;;;;;;;;;;;;9.95;51.07;101611.63;4943025;28;6990;-76
2023/05/18 02:55:47;;;;;;;;;;;;;;;9.93;50.86;101614.06;4944842;28;6781;-77
2023/05/18 02:58:14;;;;;;;;;;;;;;;9.92;51.41;101617.41;4947730;28;6969;-77
2023/05/18 03:00:40;;;;;;;;;;;;;;;9.88;51.25;101610.28;4917751;28;7066;-77
2023/05/18 03:03:09;;;;;;;;;;;;;;;9.87;51.49;101608.50;4922856;28;7044;-76
2023/05/18 03:05:36;;;;;;;;;;;;;;;9.85;51.43;101612.63;4943015;28;6788;-76
2023/05/18 03:08:01;;;;;;;;;;;;;;;9.83;51.56;101601.41;4959132;28;7065;-75
2023/05/18 03:10:27;;;;;;;;;;;;;;;9.81;51.33;101608.09;4944468;28;7820;-77
2023/05/18 03:12:53;;;;;;;;;;;;;;;9.81;51.92;101616.66;4937816;28;6974;-76
2023/05/18 03:15:19;;;;;;;;;;;;;;;9.80;51.61;101611.41;4955383;28;6836;-76
2023/05/18 03:17:45;;;;;;;;;;;;;;;9.78;51.40;101608.75;4972738;28;6776;-76
2023/05/18 03:20:13;;;;;;;;;;;;;;;9.78;51.05;101607.84;4930493;28;7070;-76
2023/05/18 03:22:39;;;;;;;;;;;;;;;9.75;51.07;101605.09;4944852;28;7362;-76
2023/05/18 03:25:06;;;;;;;;;;;;;;;9.74;51.53;101611.88;4956316;28;6807;-76
2023/05/18 03:27:32;;;;;;;;;;;;;;;9.70;51.60;101610.75;4937711;28;6867;-76
2023/05/18 03:29:59;;;;;;;;;;;;;;;9.67;51.90;101609.69;4944761;28;7589;-76
2023/05/18 03:32:25;;;;;;;;;;;;;;;9.64;51.79;101607.78;4940050;28;6888;-76
2023/05/18 03:34:51;;;;;;;;;;;;;;;9.62;52.25;101613.56;4960635;28;6799;-76
2023/05/18 03:37:17;;;;;;;;;;;;;;;9.59;51.68;101611.66;4949283;28;6868;-76
2023/05/18 03:39:43;;;;;;;;;;;;;;;9.55;52.22;101610.56;4958201;28;6819;-76
2023/05/18 03:42:09;;;;;;;;;;;;;;;9.55;51.80;101620.78;4943306;28;7113;-76
2023/05/18 03:44:34;;;;;;;;;;;;;;;9.52;52.38;101620.59;4959657;28;6768;-75
2023/05/18 03:47:00;;;;;;;;;;;;;;;9.50;52.40;101617.03;4964309;28;6917;-76
2023/05/18 03:49:28;;;;;;;;;;;;;;;9.49;52.63;101620.38;4942192;28;6958;-76
2023/05/18 03:51:55;;;;;;;;;;;;;;;9.47;52.69;101616.81;4939020;28;6792;-76
2023/05/18 03:54:21;;;;;;;;;;;;;;;9.45;51.93;101621.81;4947503;28;6799;-76
2023/05/18 03:56:47;;;;;;;;;;;;;;;9.47;51.62;101623.59;4942764;28;8610;-75
2023/05/18 03:59:13;;;;;;;;;;;;;;;9.48;52.33;101622.81;4955510;28;6772;-75
2023/05/18 04:01:43;;;;;;;;;;;;;;;9.48;52.42;101616.03;4967805;28;6796;-76
2023/05/18 04:04:16;;;;;;;;;;;;;;;9.50;52.68;101618.69;4962667;28;6879;-75
2023/05/18 04:06:45;;;;;;;;;;;;;;;9.53;52.75;101622.34;4960287;28;6820;-75
2023/05/18 04:09:16;;;;;;;;;;;;;;;9.55;52.73;101612.25;4966424;28;6788;-76
2023/05/18 04:11:42;;;;;;;;;;;;;;;9.60;53.28;101616.00;4961269;28;6903;-75
2023/05/18 04:14:08;;;;;;;;;;;;;;;9.65;53.07;101621.44;4959962;28;7275;-76
2023/05/18 04:16:34;;;;;;;;;;;;;;;9.69;52.51;101615.78;4978096;28;7673;-76
2023/05/18 04:19:00;;;;;;;;;;;;;;;9.76;52.69;101615.44;4963411;28;6839;-76
2023/05/18 04:21:26;;;;;;;;;;;;;;;9.86;53.79;101615.31;4961271;28;6784;-76
2023/05/18 04:23:51;;;;;;;;;;;;;;;9.99;53.73;101621.28;4958218;28;7345;-76
2023/05/18 04:26:18;;;;;;;;;;;;;;;10.15;54.36;101623.25;4964228;28;6984;-76
2023/05/18 04:28:47;;;;;;;;;;;;;;;10.32;53.71;101613.25;4957126;28;6788;-76
2023/05/18 04:31:16;;;;;;;;;;;;;;;10.50;54.25;101619.69;4978780;28;7239;-75
2023/05/18 04:33:45;;;;;;;;;;;;;;;10.68;53.52;101627.72;4967402;28;6804;-75
2023/05/18 04:36:11;;;;;;;;;;;;;;;10.89;53.24;101631.63;4968921;28;7066;-75
2023/05/18 04:38:37;;;;;;;;;;;;;;;11.06;53.22;101628.50;4962089;28;6776;-76
2023/05/18 04:41:07;;;;;;;;;;;;;;;11.27;52.88;101632.34;4966694;28;7196;-76
2023/05/18 04:43:35;;;;;;;;;;;;;;;11.45;53.26;101630.09;4963312;28;6800;-76
2023/05/18 04:46:00;;;;;;;;;;;;;;;11.64;52.76;101629.56;4977551;28;7022;-76
2023/05/18 04:48:28;;;;;;;;;;;;;;;11.81;52.38;101634.09;4957573;28;7169;-75
2023/05/18 04:50:54;;;;;;;;;;;;;;;11.99;52.37;101630.91;4966373;28;6816;-76
2023/05/18 04:53:21;;;;;;;;;;;;;;;12.16;51.46;101636.22;4966774;28;6796;-76
2023/05/18 04:55:52;;;;;;;;;;;;;;;12.34;51.34;101637.34;4976790;28;7018;-76
2023/05/18 04:58:17;;;;;;;;;;;;;;;12.49;51.55;101639.06;4961020;28;7170;-75
2023/05/18 05:00:43;;;;;;;;;;;;;;;12.64;50.13;101641.66;4962586;28;6776;-76
2023/05/18 05:03:09;;;;;;;;;;;;;;;12.74;49.98;101640.50;4932609;28;6987;-76
2023/05/18 05:05:34;;;;;;;;;;;;;;;12.81;49.78;101641.78;4957839;28;6947;-76
2023/05/18 05:08:00;;;;;;;;;;;;;;;12.81;49.46;101642.66;4962710;28;6953;-76
2023/05/18 05:10:27;;;;;;;;;;;;;;;12.83;49.31;101640.19;4968924;28;6780;-75
2023/05/18 05:12:53;;;;;;;;;;;;;;;12.89;49.14;101641.41;4959966;28;6820;-75
2023/05/18 05:15:19;;;;;;;;;;;;;;;12.94;49.04;101636.53;4966633;28;7228;-75
2023/05/18 05:17:48;;;;;;;;;;;;;;;13.01;48.86;101640.34;4946896;28;6970;-74
2023/05/18 05:20:15;;;;;;;;;;;;;;;13.07;49.12;101640.72;4966046;28;6792;-76
2023/05/18 05:22:40;;;;;;;;;;;;;;;13.16;49.20;101636.09;4960884;28;6991;-76
2023/05/18 05:25:07;;;;;;;;;;;;;;;13.31;49.37;101640.31;4949480;28;6772;-75
2023/05/18 05:27:33;;;;;;;;;;;;;;;13.46;49.45;101638.66;4951526;28;7196;-75
2023/05/18 05:29:59;;;;;;;;;;;;;;;13.67;49.82;101639.78;4938642;28;7989;-74
2023/05/18 05:32:24;;;;;;;;;;;;;;;13.87;49.57;101638.28;4952340;28;9677;-75
2023/05/18 05:34:50;;;;;;;;;;;;;;;14.12;49.34;101645.63;4950485;28;6990;-74
2023/05/18 05:37:17;;;;;;;;;;;;;;;14.36;48.49;101646.84;4964577;28;7157;-75
2023/05/18 05:39:43;;;;;;;;;;;;;;;14.58;48.50;101649.75;4967298;28;7253;-75
2023/05/18 05:42:09;;;;;;;;;;;;;;;14.76;48.22;101642.91;4956245;28;6944;-74
2023/05/18 05:44:35;;;;;;;;;;;;;;;14.91;47.63;101646.25;4961867;28;7391;-77
2023/05/18 05:47:02;;;;;;;;;;;;;;;14.98;46.71;101648.31;4941464;28;6980;-74
2023/05/18 05:49:27;;;;;;;;;;;;;;;14.98;46.32;101648.31;4960773;28;6792;-74
2023/05/18 05:51:53;;;;;;;;;;;;;;;14.96;45.79;101647.38;4945829;28;6838;-74
2023/05/18 05:54:18;;;;;;;;;;;;;;;14.88;45.43;101648.69;4952040;28;6930;-75
2023/05/18 05:56:44;;;;;;;;;;;;;;;14.77;45.38;101645.53;4934435;28;7213;-74
2023/05/18 05:59:10;;;;;;;;;;;;;;;14.67;45.57;101653.59;4958147;28;6768;-77
2023/05/18 06:01:36;;;;;;;;;;;;;;;14.61;45.57;101642.97;4968475;28;6856;-77
2023/05/18 06:04:03;;;;;;;;;;;;;;;14.57;45.63;101654.84;4956427;28;7819;-76
2023/05/18 06:06:28;;;;;;;;;;;;;;;14.54;45.17;101658.13;4967660;28;7170;-77
2023/05/18 06:08:54;;;;;;;;;;;;;;;14.53;45.55;101653.78;4955001;28;6804;-77
2023/05/18 06:11:20;;;;;;;;;;;;;;;14.50;45.48;101650.16;4951951;28;6788;-76
2023/05/18 06:13:45;;;;;;;;;;;;;;;14.48;45.72;101651.78;4949501;28;6951;-76
2023/05/18 06:16:11;;;;;;;;;;;;;;;14.46;45.84;101653.41;4976242;28;8514;-76
2023/05/18 06:18:37;;;;;;;;;;;;;;;14.47;46.32;101655.16;4971787;28;7857;-77
2023/05/18 06:21:02;;;;;;;;;;;;;;;14.52;45.42;101664.00;4968204;28;6848;-77
2023/05/18 06:23:28;;;;;;;;;;;;;;;14.56;46.08;101665.97;4957137;28;7305;-77
2023/05/18 06:25:53;;;;;;;;;;;;;;;14.61;45.61;101663.63;4965700;28;7768;-76
2023/05/18 06:28:19;;;;;;;;;;;;;;;14.63;45.95;101664.59;4975798;28;6957;-76
2023/05/18 06:30:45;;;;;;;;;;;;;;;14.67;45.06;101659.66;4967036;28;6780;-77
2023/05/18 06:33:11;;;;;;;;;;;;;;;14.72;45.04;101667.63;4956699;28;6935;-77
2023/05/18 06:35:36;;;;;;;;;;;;;;;14.74;44.95;101666.03;4956389;28;7152;-77
2023/05/18 06:38:02;;;;;;;;;;;;;;;14.75;45.08;101667.81;4954181;28;6788;-77
2023/05/18 06:40:28;;;;;;;;;;;;;;;14.75;45.29;101670.41;4938584;28;7244;-77
2023/05/18 06:42:53;;;;;;;;;;;;;;;14.76;44.51;101672.16;4973472;28;6791;-77
2023/05/18 06:45:19;;;;;;;;;;;;;;;14.75;44.56;101667.81;4948065;28;6956;-78
2023/05/18 06:47:45;;;;;;;;;;;;;;;14.79;44.90;101666.28;4959065;28;6800;-77
2023/05/18 06:50:11;;;;;;;;;;;;;;;14.79;45.22;101672.34;4957474;28;6784;-77
2023/05/18 06:52:37;;;;;;;;;;;;;;;14.77;44.95;101671.34;4962353;28;7197;-77
2023/05/18 06:55:04;;;;;;;;;;;;;;;14.78;44.92;101672.25;4951395;28;6808;-77
2023/05/18 06:57:30;;;;;;;;;;;;;;;14.80;45.54;101671.53;4951958;28;7190;-74
2023/05/18 06:59:56;;;;;;;;;;;;;;;14.89;45.25;101671.09;4949560;28;6784;-74
2023/05/18 07:02:22;;;;;;;;;;;;;;;15.03;45.25;101679.53;4965081;28;6796;-74
2023/05/18 07:04:48;;;;;;;;;;;;;;;15.18;45.11;101673.38;4951556;28;6772;-74
2023/05/18 07:07:15;;;;;;;;;;;;;;;15.32;45.18;101674.06;4958989;28;7051;-75
2023/05/18 07:09:43;;;;;;;;;;;;;;;15.44;45.10;101666.91;4968885;28;7002;-74
2023/05/18 07:12:09;;;;;;;;;;;;;;;15.61;45.05;101670.28;4957780;28;8061;-74
2023/05/18 07:14:35;;;;;;;;;;;;;;;15.84;44.90;101667.91;4951381;28;7526;-74
2023/05/18 07:17:01;;;;;;;;;;;;;;;16.02;45.03;101673.06;4947173;28;6828;-75
2023/05/18 07:19:26;;;;;;;;;;;;;;;16.20;44.55;101674.72;4952020;28;6985;-75
2023/05/18 07:21:52;;;;;;;;;;;;;;;16.40;44.74;101669.56;4961774;28;7861;-74
2023/05/18 07:24:18;;;;;;;;;;;;;;;16.60;44.07;101673.00;4958114;28;6784;-75
2023/05/18 07:26:44;;;;;;;;;;;;;;;16.76;44.23;101675.44;4953800;28;8205;-75
2023/05/18 07:29:10;;;;;;;;;;;;;;;16.97;43.65;101677.19;4940772;28;7234;-75
2023/05/18 07:31:39;;;;;;;;;;;;;;;17.16;43.60;101670.22;4934868;28;9879;-75
2023/05/18 07:34:05;;;;;;;;;;;;;;;17.31;43.17;101676.03;4960923;28;8030;-75
2023/05/18 07:36:32;;;;;;;;;;;;;;;17.41;42.66;101674.69;4951909;28;7338;-75
2023/05/18 07:38:58;;;;;;;;;;;;;;;17.51;42.08;101670.75;4951250;28;7503;-75
2023/05/18 07:41:25;;;;;;;;;;;;;;;17.55;41.92;101670.03;4957516;28;7888;-74
2023/05/18 07:43:51;;;;;;;;;;;;;;;17.58;41.68;101664.09;4963658;28;6856;-74
2023/05/18 07:46:17;;;;;;;;;;;;;;;17.62;41.56;101666.88;4969330;28;8506;-74
2023/05/18 07:48:46;;;;;;;;;;;;;;;17.63;41.05;101665.19;4951543;28;7170;-75
2023/05/18 07:51:12;;;;;;;;;;;;;;;17.65;41.10;101662.63;4953392;28;6819;-75
2023/05/18 07:53:39;;;;;;;;;;;;;;;17.69;40.88;101673.19;4968291;28;7229;-75
2023/05/18 07:56:07;;;;;;;;;;;;;;;17.75;40.79;101665.66;4959462;28;6816;-74
2023/05/18 07:58:36;;;;;;;;;;;;;;;17.83;40.92;101665.94;4960768;28;6953;-75
2023/05/18 08:01:01;;;;;;;;;;;;;;;17.92;40.63;101662.81;4960628;28;7728;-75
2023/05/18 08:03:27;;;;;;;;;;;;;;;18.00;40.04;101663.97;4966351;28;7920;-74
2023/05/18 08:05:53;;;;;;;;;;;;;;;18.13;40.12;101660.16;4979382;28;6955;-75
2023/05/18 08:08:19;;;;;;;;;;;;;;;18.28;40.02;101664.16;4961418;28;7226;-75
2023/05/18 08:10:44;;;;;;;;;;;;;;;18.36;39.94;101657.53;4963137;28;7269;-75
2023/05/18 08:13:10;;;;;;;;;;;;;;;18.44;39.12;101658.66;4961291;28;6996;-74
2023/05/18 08:15:39;;;;;;;;;;;;;;;18.45;38.79;101656.97;4965744;28;7174;-75
2023/05/18 08:18:05;;;;;;;;;;;;;;;18.42;38.36;101657.75;4974243;28;7783;-74
2023/05/18 08:20:31;;;;;;;;;;;;;;;18.39;39.00;101660.25;4962803;28;6768;-75
2023/05/18 08:22:56;;;;;;;;;;;;;;;18.46;38.85;101658.75;4961849;28;6963;-75
2023/05/18 08:25:23;;;;;;;;;;;;;;;18.55;38.52;101658.19;4964131;28;6976;-74
2023/05/18 08:27:49;;;;;;;;;;;;;;;18.66;38.73;101655.97;4965542;28;6883;-74
2023/05/18 08:30:15;;;;;;;;;;;;;;;18.85;38.03;101652.28;4979141;28;6848;-74
2023/05/18 08:32:41;;;;;;;;;;;;;;;19.13;37.65;101642.84;4977807;28;7254;-75
2023/05/18 08:35:08;;;;;;;;;;;;;;;19.50;37.42;101637.94;4972635;28;7226;-74
2023/05/18 08:37:36;;;;;;;;;;;;;;;19.89;36.81;101639.97;4972009;28;7857;-75
2023/05/18 08:40:06;;;;;;;;;;;;;;;20.44;36.40;101638.88;4964870;28;6812;-75
2023/05/18 08:42:43;;;;;;;;;;;;;;;21.00;35.36;101640.34;4971904;28;6840;-75
2023/05/18 08:45:31;;;;;;;;;;;;;;;21.45;33.86;101631.84;4963644;28;6800;-75
2023/05/18 08:48:00;;;;;;;;;;;;;;;21.61;32.77;101633.06;4964147;28;6995;-75
2023/05/18 08:50:31;;;;;;;;;;;;;;;21.75;32.23;101636.00;4931694;28;6935;-75
2023/05/18 08:53:03;;;;;;;;;;;;;;;22.15;32.03;101632.47;4961368;28;6995;-75
2023/05/18 08:55:35;;;;;;;;;;;;;;;22.66;31.88;101637.75;4966171;28;7207;-74
2023/05/18 08:58:03;;;;;;;;;;;;;;;22.83;31.72;101635.44;4964328;28;7216;-74
2023/05/18 09:00:31;;;;;;;;;;;;;;;23.08;31.37;101628.00;4964954;28;6819;-74
2023/05/18 09:02:57;;;;;;;;;;;;;;;23.53;31.06;101639.13;4962829;28;6973;-74
2023/05/18 09:05:23;;;;;;;;;;;;;;;23.79;30.42;101629.00;4961313;28;8680;-74
2023/05/18 09:07:54;;;;;;;;;;;;;;;23.95;29.97;101627.50;4949255;28;7007;-74
2023/05/18 09:10:21;;;;;;;;;;;;;;;24.19;29.35;101623.41;4960122;28;7819;-75
2023/05/18 09:12:49;;;;;;;;;;;;;;;24.44;29.41;101622.78;4975692;28;6807;-74
2023/05/18 09:15:16;;;;;;;;;;;;;;;24.57;28.68;101615.91;4950370;28;6817;-75
2023/05/18 09:17:42;;;;;;;;;;;;;;;24.74;28.32;101618.66;4945157;28;7299;-72
2023/05/18 09:20:09;;;;;;;;;;;;;;;25.06;28.68;101621.59;4968683;28;7391;-75
2023/05/18 09:22:35;;;;;;;;;;;;;;;25.03;27.40;101618.94;4975359;28;6816;-72
2023/05/18 09:25:02;;;;;;;;;;;;;;;24.73;27.66;101623.06;4962455;28;6804;-73
2023/05/18 09:27:29;;;;;;;;;;;;;;;24.73;27.72;101622.16;4948816;28;8638;-71
2023/05/18 09:29:57;;;;;;;;;;;;;;;24.88;27.67;101624.06;4961820;28;6839;-72
2023/05/18 09:32:24;;;;;;;;;;;;;;;25.21;28.08;101619.94;4942356;28;7169;-73
2023/05/18 09:34:51;;;;;;;;;;;;;;;25.60;27.78;101612.28;4965756;28;7243;-75
2023/05/18 09:37:19;;;;;;;;;;;;;;;25.79;27.16;101624.63;4980748;28;7992;-75
2023/05/18 09:39:58;;;;;;;;;;;;;;;25.73;26.88;101621.97;4965559;28;7488;-73
2023/05/18 09:42:39;;;;;;;;;;;;;;;25.45;26.64;101619.22;4964143;28;6796;-72
2023/05/18 09:45:27;;;;;;;;;;;;;;;24.99;26.19;101630.25;4980145;28;6784;-72
2023/05/18 09:47:53;;;;;;;;;;;;;;;24.34;26.55;101632.31;4962472;28;6792;-71
2023/05/18 09:50:20;;;;;;;;;;;;;;;24.04;27.07;101625.81;4961022;28;6927;-72
2023/05/18 09:52:48;;;;;;;;;;;;;;;24.09;27.67;101624.16;4950527;28;8499;-72
2023/05/18 09:55:19;;;;;;;;;;;;;;;24.01;27.14;101624.06;4962553;28;6972;-72
2023/05/18 09:57:48;;;;;;;;;;;;;;;24.06;27.48;101618.91;4961317;28;6784;-72
2023/05/18 10:00:17;;;;;;;;;;;;;;;24.34;27.23;101606.97;4956494;28;6796;-74
2023/05/18 10:02:51;;;;;;;;;;;;;;;24.91;26.97;101610.97;4946827;28;7306;-73
2023/05/18 10:05:30;;;;;;;;;;;;;;;25.33;27.01;101612.13;4945567;28;7454;-76
2023/05/18 10:07:57;;;;;;;;;;;;;;;25.51;26.36;101613.16;4961520;28;7503;-75
2023/05/18 10:10:26;;;;;;;;;;;;;;;25.23;25.86;101605.09;4964376;28;6792;-73
2023/05/18 10:12:54;;;;;;;;;;;;;;;24.56;25.99;101609.78;4956450;28;8618;-75
2023/05/18 10:15:22;;;;;;;;;;;;;;;24.24;27.07;101605.13;4960490;28;6792;-73
2023/05/18 10:17:52;;;;;;;;;;;;;;;24.40;26.74;101606.16;4958456;28;7050;-74
2023/05/18 10:20:26;;;;;;;;;;;;;;;24.55;26.93;101603.69;4958910;28;6984;-75
2023/05/18 10:22:57;;;;;;;;;;;;;;;24.69;26.75;101598.56;4961249;28;7372;-72
2023/05/18 10:25:25;;;;;;;;;;;;;;;24.40;26.13;101601.78;4960241;28;6951;-72
2023/05/18 10:27:59;;;;;;;;;;;;;;;23.76;26.55;101600.19;4965781;28;6939;-74
2023/05/18 10:30:25;;;;;;;;;;;;;;;23.33;27.33;101605.75;4945539;28;6884;-73
2023/05/18 10:32:53;;;;;;;;;;;;;;;23.28;27.77;101602.19;4961776;28;6796;-73
2023/05/18 10:35:22;;;;;;;;;;;;;;;23.37;27.95;101596.19;4958833;28;6784;-72
2023/05/18 10:37:52;;;;;;;;;;;;;;;23.20;27.65;101599.41;4976513;28;8190;-71
2023/05/18 10:40:19;;;;;;;;;;;;;;;22.84;27.15;101596.25;4965497;28;7019;-72
2023/05/18 10:42:49;;;;;;;;;;;;;;;22.46;28.15;101593.84;4966930;28;6792;-71
2023/05/18 10:45:15;;;;;;;;;;;;;;;22.19;28.58;101605.53;4982699;28;7200;-74
2023/05/18 10:47:43;;;;;;;;;;;;;;;22.38;28.49;101604.16;4984542;28;7182;-73
2023/05/18 10:50:09;;;;;;;;;;;;;;;22.97;28.40;101594.72;4964845;28;7266;-72
2023/05/18 10:52:41;;;;;;;;;;;;;;;23.75;28.19;101590.59;4961303;28;7124;-72
2023/05/18 10:55:08;;;;;;;;;;;;;;;24.44;27.19;101581.75;4972653;28;6864;-75
2023/05/18 10:57:46;;;;;;;;;;;;;;;25.07;26.31;101584.00;4965127;28;6780;-72
2023/05/18 11:00:13;;;;;;;;;;;;;;;25.49;26.14;101586.84;4941059;28;7339;-73
2023/05/18 11:02:41;;;;;;;;;;;;;;;25.34;25.21;101584.13;4962925;28;7309;-72
2023/05/18 11:05:09;;;;;;;;;;;;;;;24.74;25.90;101580.25;4964795;28;6940;-75
2023/05/18 11:07:36;;;;;;;;;;;;;;;24.39;26.48;101573.84;4946440;28;7249;-72
2023/05/18 11:10:09;;;;;;;;;;;;;;;24.48;26.71;101575.66;4958163;28;7015;-73
2023/05/18 11:12:40;;;;;;;;;;;;;;;24.94;26.71;101566.44;4947943;28;6804;-74
2023/05/18 11:15:07;;;;;;;;;;;;;;;25.50;26.05;101564.16;4943785;28;6935;-72
2023/05/18 11:17:32;;;;;;;;;;;;;;;26.15;25.61;101566.94;4958743;28;7784;-72
2023/05/18 11:20:07;;;;;;;;;;;;;;;26.48;25.06;101561.75;4963650;28;6772;-76
2023/05/18 11:22:46;;;;;;;;;;;;;;;26.33;24.42;101553.00;4944024;28;6804;-72
2023/05/18 11:25:39;;;;;;;;;;;;;;;26.03;24.65;101559.06;4955058;28;7143;-72
2023/05/18 11:28:08;;;;;;;;;;;;;;;26.01;24.61;101558.19;4953785;28;6800;-74
2023/05/18 11:30:35;;;;;;;;;;;;;;;26.07;24.57;101551.19;4963642;28;6984;-75
2023/05/18 11:33:29;;;;;;;;;;;;;;;26.41;24.74;101550.38;4943000;28;6990;-73
2023/05/18 11:36:08;;;;;;;;;;;;;;;26.75;24.32;101537.22;4950304;28;6947;-75
2023/05/18 11:38:54;;;;;;;;;;;;;;;26.96;24.13;101539.81;4952022;28;7317;-73
2023/05/18 11:41:40;;;;;;;;;;;;;;;27.06;24.34;101535.41;4963985;28;6972;-74
2023/05/18 11:44:13;;;;;;;;;;;;;;;27.44;24.41;101537.91;4957000;28;6812;-75
2023/05/18 11:46:59;;;;;;;;;;;;;;;27.75;23.26;101536.91;4954911;28;7187;-76
2023/05/18 11:49:28;;;;;;;;;;;;;;;28.07;23.90;101541.06;4961058;28;7003;-75
2023/05/18 11:52:05;;;;;;;;;;;;;;;28.39;22.99;101528.56;4954628;28;6824;-72
2023/05/18 11:54:53;;;;;;;;;;;;;;;28.45;23.06;101531.16;4949228;28;6815;-74
2023/05/18 11:57:42;;;;;;;;;;;;;;;28.25;22.42;101532.22;4958174;28;7013;-75
2023/05/18 12:00:11;;;;;;;;;;;;;;;28.08;22.32;101532.28;4959566;28;6808;-75
2023/05/18 12:02:37;;;;;;;;;;;;;;;28.10;22.43;101527.91;4978150;28;13476;-75
2023/05/18 12:05:08;;;;;;;;;;;;;;;28.15;22.78;101522.56;4966022;28;7015;-71
2023/05/18 12:07:35;;;;;;;;;;;;;;;28.21;22.37;101526.97;4968408;28;6807;-72
2023/05/18 12:10:05;;;;;;;;;;;;;;;28.14;22.57;101526.97;4961220;28;6868;-74
2023/05/18 12:12:32;;;;;;;;;;;;;;;28.31;22.30;101522.47;4949467;28;7006;-72
2023/05/18 12:15:01;;;;;;;;;;;;;;;28.41;21.81;101521.50;4961620;28;7260;-73
2023/05/18 12:20:20;;;;;;;;;;;;;;;28.44;21.74;101516.22;5022232;28;6693;-74
2023/05/18 12:22:52;;;;;;;;;;;;;;;28.32;21.70;101513.69;5036072;28;7279;-73
2023/05/18 12:25:20;;;;;;;;;;;;;;;27.91;21.73;101518.34;5006834;28;6856;-72
2023/05/18 12:27:47;;;;;;;;;;;;;;;27.61;22.32;101504.50;5039402;28;6958;-72
2023/05/18 12:30:19;;;;;;;;;;;;;;;27.58;22.41;101516.81;5031544;28;6795;-72
2023/05/18 12:32:51;;;;;;;;;;;;;;;27.48;22.36;101508.94;4959716;28;6804;-78
2023/05/18 12:35:24;;;;;;;;;;;;;;;27.35;22.30;101508.13;4997159;28;8479;-73
2023/05/18 12:37:54;;;;;;;;;;;;;;;27.34;22.57;101507.22;4957822;28;6976;-73
2023/05/18 12:40:20;;;;;;;;;;;;;;;27.50;22.77;101505.41;4989906;28;6788;-76
2023/05/18 12:43:00;;;;;;;;;;;;;;;27.53;22.33;101502.78;4992286;28;7236;-76
2023/05/18 12:45:31;;;;;;;;;;;;;;;27.46;22.92;101506.31;4972575;28;6792;-74
2023/05/18 12:48:04;;;;;;;;;;;;;;;27.42;23.11;101500.19;4989036;28;6976;-74
2023/05/18 12:50:30;;;;;;;;;;;;;;;27.48;22.57;101499.28;4966811;28;6816;-76
2023/05/18 12:52:56;;;;;;;;;;;;;;;27.35;22.92;101497.59;4966021;28;6788;-77
2023/05/18 12:55:24;;;;;;;;;;;;;;;27.37;22.97;101495.81;4994744;28;7295;-73
2023/05/18 12:58:06;;;;;;;;;;;;;;;27.25;22.55;101494.13;4969542;28;6812;-71